Time;durP1;ratioP1;P1;durP2;ratioP2;P2;SDS_P1;SDS_P2;PMS_P1;PMS_P2;Temp;Humidity;BMP_temperature;BMP_pressure;BME280_temperature;BME280_humidity;BME280_pressure;Samples;Min_cycle;Max_cycle;Signal;HPM_P1;HPM_P2
2022/01/28 00:04:45;;;;;;;1.80;1.17;;;22.10;33.30;;;;;;5053884;28;20413;-69
2022/01/28 00:07:11;;;;;;;1.80;1.03;;;22.10;33.00;;;;;;5054224;28;20413;-68
2022/01/28 00:09:37;;;;;;;1.83;1.02;;;22.10;33.30;;;;;;5036298;28;20405;-68
2022/01/28 00:12:03;;;;;;;1.73;1.00;;;22.10;32.90;;;;;;5054173;28;20449;-68
2022/01/28 00:14:41;;;;;;;1.60;1.10;;;22.10;33.30;;;;;;5054055;28;20774;-67
2022/01/28 00:20:25;;;;;;;1.30;0.90;;;22.10;32.80;;;;;;5054447;28;20423;-68
2022/01/28 00:38:51;;;;;;;1.83;0.90;;;22.00;32.90;;;;;;5053090;28;20392;-72
2022/01/28 00:41:17;;;;;;;1.50;0.90;;;22.00;32.70;;;;;;5053616;28;20381;-67
2022/01/28 00:43:43;;;;;;;1.20;0.80;;;22.00;32.80;;;;;;5053546;28;20432;-76
2022/01/28 00:46:08;;;;;;;1.33;0.70;;;21.90;32.80;;;;;;5053473;28;20389;-74
2022/01/28 00:48:34;;;;;;;1.88;0.80;;;21.90;32.70;;;;;;5053626;28;20440;-69
2022/01/28 00:51:00;;;;;;;1.35;0.80;;;22.00;32.60;;;;;;5052917;28;20424;-69
2022/01/28 00:53:26;;;;;;;1.20;0.70;;;22.00;32.60;;;;;;5053458;28;20409;-72
2022/01/28 00:55:54;;;;;;;1.70;0.73;;;22.00;32.70;;;;;;5053289;28;20389;-75
2022/01/28 00:58:20;;;;;;;1.40;0.98;;;22.00;32.60;;;;;;5053396;28;20381;-75
2022/01/28 01:00:46;;;;;;;1.20;0.80;;;22.00;32.40;;;;;;5052814;28;20472;-72
2022/01/28 01:03:11;;;;;;;1.10;0.70;;;22.00;32.50;;;;;;5053247;28;20469;-69
2022/01/28 01:05:37;;;;;;;1.55;0.80;;;22.00;32.40;;;;;;5053241;28;20480;-68
2022/01/28 01:08:05;;;;;;;0.93;0.60;;;22.00;32.30;;;;;;5035362;28;20534;-68
2022/01/28 01:10:32;;;;;;;1.02;0.60;;;22.00;32.40;;;;;;5035236;28;20394;-68
2022/01/28 01:12:57;;;;;;;1.20;0.60;;;21.90;32.40;;;;;;5034659;28;20382;-69
2022/01/28 01:15:28;;;;;;;1.70;0.80;;;22.00;32.90;;;;;;5053037;28;20397;-72
2022/01/28 01:18:03;;;;;;;0.93;0.50;;;22.00;32.30;;;;;;5052868;28;20727;-68
2022/01/28 01:25:28;;;;;;;0.93;0.60;;;22.00;32.20;;;;;;5052718;28;20443;-73
2022/01/28 01:27:56;;;;;;;0.80;0.50;;;21.90;32.20;;;;;;5052568;28;20390;-73
2022/01/28 01:30:24;;;;;;;0.90;0.60;;;21.90;32.10;;;;;;5034719;28;20470;-67
2022/01/28 01:32:49;;;;;;;0.90;0.60;;;21.90;32.10;;;;;;5052236;28;20391;-69
2022/01/28 01:35:15;;;;;;;0.95;0.60;;;21.90;32.00;;;;;;5034719;28;20488;-70
2022/01/28 01:37:41;;;;;;;1.35;0.50;;;22.00;32.00;;;;;;5052580;28;20385;-75
2022/01/28 01:40:07;;;;;;;1.37;0.50;;;22.00;32.00;;;;;;5034257;28;20394;-69
2022/01/28 01:42:45;;;;;;;0.70;0.40;;;22.00;32.00;;;;;;5052441;28;20454;-68
2022/01/28 01:45:41;;;;;;;0.80;0.50;;;22.00;32.10;;;;;;5052502;28;20876;-68
2022/01/28 01:53:27;;;;;;;1.00;0.60;;;22.00;32.00;;;;;;5052494;28;20761;-68
2022/01/28 01:55:52;;;;;;;1.13;0.70;;;22.00;32.00;;;;;;5052288;28;20394;-71
2022/01/28 01:58:24;;;;;;;1.70;0.80;;;21.90;31.90;;;;;;5052198;28;20927;-76
2022/01/28 02:00:50;;;;;;;1.45;0.80;;;22.00;32.00;;;;;;5051813;28;20424;-69
2022/01/28 02:03:16;;;;;;;2.15;1.00;;;21.90;32.00;;;;;;5052138;28;20431;-72
2022/01/28 02:05:42;;;;;;;1.83;1.10;;;21.90;32.00;;;;;;5052147;28;20394;-68
2022/01/28 02:08:07;;;;;;;1.60;0.90;;;21.90;32.00;;;;;;5052005;28;20381;-69
2022/01/28 02:10:34;;;;;;;1.57;1.17;;;21.90;32.10;;;;;;5051995;28;20389;-70
2022/01/28 02:12:59;;;;;;;1.40;1.00;;;21.90;32.10;;;;;;5051260;28;20461;-68
2022/01/28 02:15:25;;;;;;;2.30;1.10;;;21.90;32.10;;;;;;5034174;28;20459;-69
2022/01/28 02:17:51;;;;;;;1.87;1.10;;;21.90;32.10;;;;;;5051702;28;20901;-74
2022/01/28 02:20:26;;;;;;;1.85;1.10;;;21.90;32.10;;;;;;5051872;28;20476;-69
2022/01/28 02:22:53;;;;;;;1.85;1.17;;;21.90;32.10;;;;;;5051241;28;20420;-70
2022/01/28 02:25:24;;;;;;;1.70;1.20;;;21.90;32.10;;;;;;5033950;28;20401;-71
2022/01/28 02:27:50;;;;;;;2.15;1.35;;;21.90;32.10;;;;;;5051615;28;20405;-71
2022/01/28 02:30:15;;;;;;;1.70;1.23;;;21.90;32.20;;;;;;5034144;28;20386;-68
2022/01/28 02:32:43;;;;;;;1.73;1.20;;;21.90;32.10;;;;;;5033465;28;20389;-78
2022/01/28 02:35:09;;;;;;;1.80;1.35;;;21.90;32.10;;;;;;5051262;28;20414;-68
2022/01/28 02:37:35;;;;;;;2.30;1.40;;;21.80;32.10;;;;;;5051625;28;20442;-68
2022/01/28 02:40:00;;;;;;;2.70;1.40;;;21.90;32.20;;;;;;5051435;28;20382;-71
2022/01/28 02:42:43;;;;;;;2.28;1.20;;;21.90;32.20;;;;;;5051562;28;20960;-68
2022/01/28 02:45:09;;;;;;;2.28;1.20;;;21.80;32.20;;;;;;5051251;28;20394;-73
2022/01/28 02:47:38;;;;;;;1.90;1.20;;;21.80;32.20;;;;;;5051346;28;20398;-71
2022/01/28 02:50:07;;;;;;;1.75;1.27;;;21.80;32.30;;;;;;5050605;28;20488;-68
2022/01/28 02:52:51;;;;;;;2.00;1.40;;;21.80;32.30;;;;;;5050982;28;20409;-78
2022/01/28 02:55:16;;;;;;;2.95;1.50;;;21.80;32.20;;;;;;5051401;28;20429;-69
2022/01/28 02:57:52;;;;;;;2.20;1.50;;;21.80;32.10;;;;;;5051421;28;20895;-67
2022/01/28 03:00:17;;;;;;;2.17;1.50;;;21.80;32.10;;;;;;5051282;28;20386;-68
2022/01/28 03:02:43;;;;;;;2.20;1.52;;;21.80;32.20;;;;;;5054963;28;20462;-68
2022/01/28 03:05:30;;;;;;;2.63;1.63;;;21.80;32.20;;;;;;5055199;28;20389;-69
2022/01/28 03:07:54;;;;;;;2.22;1.52;;;21.70;32.20;;;;;;5055220;28;20805;-72
2022/01/28 03:10:40;;;;;;;2.40;1.63;;;21.70;32.20;;;;;;5055436;28;20428;-68
2022/01/28 03:15:33;;;;;;;2.65;1.70;;;21.80;32.20;;;;;;5055373;28;20389;-72
2022/01/28 03:18:13;;;;;;;2.88;1.73;;;21.70;32.10;;;;;;5055159;28;20389;-76
2022/01/28 03:20:43;;;;;;;2.92;2.00;;;21.80;32.10;;;;;;5055233;28;20389;-70
2022/01/28 03:23:10;;;;;;;3.30;2.00;;;21.70;32.10;;;;;;5054875;28;20877;-68
2022/01/28 03:25:37;;;;;;;2.88;1.90;;;21.70;32.20;;;;;;5055179;28;20415;-69
2022/01/28 03:28:03;;;;;;;2.83;1.90;;;21.70;32.20;;;;;;5055129;28;20471;-75
2022/01/28 03:30:29;;;;;;;3.15;2.10;;;21.70;32.80;;;;;;5055077;28;20398;-68
2022/01/28 03:32:54;;;;;;;2.70;1.97;;;21.70;32.30;;;;;;5054506;28;20443;-69
2022/01/28 03:35:20;;;;;;;3.40;2.00;;;21.70;32.30;;;;;;5054870;28;20432;-68
2022/01/28 03:37:46;;;;;;;3.07;2.10;;;21.70;32.30;;;;;;5037113;28;20476;-78
2022/01/28 03:40:13;;;;;;;2.97;2.10;;;21.70;32.30;;;;;;5054882;28;20396;-67
2022/01/28 03:42:39;;;;;;;2.85;2.08;;;21.60;32.30;;;;;;5055014;28;20385;-81
2022/01/28 03:45:05;;;;;;;2.83;2.03;;;21.60;32.30;;;;;;5036625;28;20801;-72
2022/01/28 03:47:31;;;;;;;3.30;2.13;;;21.60;32.20;;;;;;5054897;28;20381;-68
2022/01/28 03:49:57;;;;;;;3.00;2.05;;;21.60;32.30;;;;;;5054291;28;20402;-76
2022/01/28 03:52:23;;;;;;;3.10;1.90;;;21.60;32.30;;;;;;5054748;28;20446;-80
2022/01/28 03:54:49;;;;;;;2.55;1.73;;;21.60;32.30;;;;;;5054164;28;20413;-69
2022/01/28 03:57:15;;;;;;;3.35;2.00;;;21.60;32.40;;;;;;5054209;28;20444;-69
2022/01/28 03:59:41;;;;;;;2.73;1.87;;;21.60;32.30;;;;;;5054341;28;20905;-68
2022/01/28 04:02:07;;;;;;;2.28;1.77;;;21.60;32.30;;;;;;5054390;28;20468;-79
2022/01/28 04:12:36;;;;;;;3.15;1.75;;;21.60;32.50;;;;;;5053786;28;20656;-65
2022/01/28 04:15:19;;;;;;;3.58;1.88;;;21.70;33.00;;;;;;5036151;28;20422;-67
2022/01/28 04:17:45;;;;;;;2.90;1.83;;;21.80;32.90;;;;;;5054005;28;20386;-66
2022/01/28 04:20:11;;;;;;;3.63;1.90;;;21.80;33.10;;;;;;5053473;28;20397;-72
2022/01/28 04:22:36;;;;;;;4.15;2.10;;;21.70;32.90;;;;;;5053600;28;20739;-67
2022/01/28 04:25:03;;;;;;;5.43;1.83;;;21.70;33.30;;;;;;5053418;28;20472;-67
2022/01/28 04:27:28;;;;;;;4.00;1.90;;;21.70;33.60;;;;;;5053796;28;20877;-72
2022/01/28 04:29:54;;;;;;;3.53;1.70;;;21.80;34.60;;;;;;5053702;28;20386;-71
2022/01/28 04:32:20;;;;;;;3.00;1.50;;;21.80;34.70;;;;;;5053545;28;20391;-72
2022/01/28 04:34:46;;;;;;;3.90;1.77;;;21.90;34.70;;;;;;5053229;28;20474;-66
2022/01/28 04:45:05;;;;;;;2.17;1.40;;;21.90;34.00;;;;;;5053349;28;20816;-68
2022/01/28 05:03:23;;;;;;;3.65;1.30;;;21.90;33.60;;;;;;5052618;28;20938;-73
2022/01/28 05:26:40;;;;;;;2.40;1.30;;;21.80;33.10;;;;;;5053016;28;20468;-69
2022/01/28 05:29:06;;;;;;;2.15;1.05;;;21.80;33.30;;;;;;5052284;28;20396;-67
2022/01/28 05:31:32;;;;;;;1.90;1.20;;;21.70;33.20;;;;;;5050207;28;20385;-66
2022/01/28 05:33:57;;;;;;;2.30;1.00;;;21.70;33.10;;;;;;5052312;28;20452;-67
2022/01/28 05:36:23;;;;;;;2.28;1.00;;;21.70;33.00;;;;;;5051969;28;20393;-79
2022/01/28 05:38:49;;;;;;;2.70;1.10;;;21.70;32.90;;;;;;5052357;28;20387;-66
2022/01/28 05:41:15;;;;;;;1.90;1.10;;;21.80;32.90;;;;;;5052465;28;20920;-66
2022/01/28 05:43:40;;;;;;;3.40;1.10;;;21.80;33.00;;;;;;5034655;28;20401;-66
2022/01/28 05:46:08;;;;;;;2.97;1.13;;;21.80;33.80;;;;;;5052297;28;20390;-65
2022/01/28 05:48:33;;;;;;;1.85;1.10;;;21.80;33.70;;;;;;5034745;28;20401;-71
2022/01/28 05:50:59;;;;;;;3.67;1.20;;;21.80;33.60;;;;;;5034502;28;20393;-67
2022/01/28 05:53:25;;;;;;;3.10;1.25;;;21.80;33.70;;;;;;5052796;28;20428;-66
2022/01/28 05:55:51;;;;;;;1.83;1.03;;;21.80;32.90;;;;;;5051782;28;20886;-81
2022/01/28 05:58:17;;;;;;;3.10;1.10;;;21.80;33.00;;;;;;5034430;28;20392;-67
2022/01/28 06:00:43;;;;;;;2.58;1.30;;;21.70;32.50;;;;;;5052289;28;20394;-68
2022/01/28 06:03:09;;;;;;;3.20;1.50;;;21.80;32.60;;;;;;5033938;28;20428;-67
2022/01/28 06:05:35;;;;;;;2.47;1.35;;;21.70;33.30;;;;;;5052330;28;20417;-74
2022/01/28 06:08:01;;;;;;;3.47;1.27;;;21.70;33.20;;;;;;5052478;28;20470;-68
2022/01/28 06:10:27;;;;;;;3.33;1.20;;;21.70;33.20;;;;;;5052275;28;20405;-71
2022/01/28 06:12:53;;;;;;;2.63;1.13;;;21.70;33.10;;;;;;5051680;28;20393;-72
2022/01/28 06:15:19;;;;;;;2.35;1.13;;;21.70;33.00;;;;;;5051695;28;20500;-78
2022/01/28 06:17:45;;;;;;;3.47;1.20;;;21.70;32.90;;;;;;5052043;28;20425;-67
2022/01/28 06:20:12;;;;;;;2.22;1.08;;;21.60;32.80;;;;;;5051860;28;20401;-67
2022/01/28 06:22:42;;;;;;;2.25;1.20;;;21.60;32.80;;;;;;5050142;28;20397;-67
2022/01/28 06:25:09;;;;;;;3.15;1.13;;;21.60;33.30;;;;;;5033246;28;20390;-67
2022/01/28 06:27:35;;;;;;;1.88;0.98;;;21.60;33.60;;;;;;5051601;28;20390;-66
2022/01/28 06:30:04;;;;;;;3.38;1.15;;;21.70;33.60;;;;;;5051601;28;20455;-65
2022/01/28 06:32:33;;;;;;;2.33;1.20;;;21.70;33.40;;;;;;5033795;28;20761;-67
2022/01/28 06:35:07;;;;;;;3.58;1.10;;;21.70;33.30;;;;;;5032713;28;20417;-75
2022/01/28 06:37:35;;;;;;;3.63;1.13;;;21.80;33.00;;;;;;5051663;28;20813;-66
2022/01/28 06:40:01;;;;;;;1.90;0.90;;;21.80;33.70;;;;;;5051194;28;20432;-66
2022/01/28 06:42:26;;;;;;;3.55;1.20;;;21.80;34.10;;;;;;5051425;28;20385;-69
2022/01/28 06:44:52;;;;;;;2.53;0.97;;;21.80;33.80;;;;;;5051332;28;20960;-66
2022/01/28 06:47:18;;;;;;;2.23;0.90;;;21.80;34.20;;;;;;5051349;28;20414;-74
2022/01/28 06:49:43;;;;;;;2.75;0.80;;;21.80;33.30;;;;;;5050883;28;20520;-79
2022/01/28 06:52:09;;;;;;;2.30;0.90;;;21.80;33.40;;;;;;5033348;28;20420;-83
2022/01/28 06:54:34;;;;;;;1.83;0.90;;;21.80;34.10;;;;;;5051055;28;20892;-67
2022/01/28 06:57:00;;;;;;;3.83;0.90;;;21.70;33.00;;;;;;5031609;28;20386;-65
2022/01/28 06:59:26;;;;;;;3.08;1.00;;;21.80;33.90;;;;;;5050200;28;20390;-78
2022/01/28 07:01:53;;;;;;;2.33;1.07;;;21.70;32.90;;;;;;5033061;28;20389;-66
2022/01/28 07:04:19;;;;;;;2.17;1.00;;;21.70;32.90;;;;;;5051354;28;20434;-66
2022/01/28 07:06:46;;;;;;;2.55;1.10;;;21.70;32.70;;;;;;5051203;28;20421;-66
2022/01/28 07:09:11;;;;;;;2.63;1.00;;;21.70;32.90;;;;;;5050893;28;20398;-68
2022/01/28 07:11:37;;;;;;;2.20;0.90;;;21.60;32.80;;;;;;5028322;28;20461;-68
2022/01/28 07:14:03;;;;;;;2.15;0.80;;;21.70;32.70;;;;;;5050905;28;20468;-66
2022/01/28 07:16:32;;;;;;;2.75;0.85;;;21.70;32.60;;;;;;5048628;28;20384;-66
2022/01/28 07:18:58;;;;;;;2.25;0.90;;;21.70;32.60;;;;;;5051259;28;21090;-65
2022/01/28 07:21:23;;;;;;;1.80;0.90;;;21.60;32.60;;;;;;5050700;28;20389;-67
2022/01/28 07:23:49;;;;;;;2.03;0.80;;;21.70;32.80;;;;;;5051176;28;20889;-74
2022/01/28 07:26:14;;;;;;;1.50;0.80;;;21.60;32.60;;;;;;5050823;28;20404;-70
2022/01/28 07:28:41;;;;;;;1.65;0.70;;;21.60;32.70;;;;;;5050690;28;20439;-70
2022/01/28 07:31:09;;;;;;;1.70;0.90;;;21.60;32.60;;;;;;5043654;28;20417;-65
2022/01/28 07:33:35;;;;;;;2.20;1.00;;;21.60;32.50;;;;;;5050493;28;20550;-71
2022/01/28 07:36:01;;;;;;;2.10;1.17;;;21.60;32.60;;;;;;5032486;28;20804;-66
2022/01/28 07:38:26;;;;;;;1.48;0.82;;;21.60;32.70;;;;;;5032554;28;20398;-69
2022/01/28 07:40:52;;;;;;;1.70;1.00;;;21.60;32.50;;;;;;5050386;28;20394;-66
2022/01/28 07:43:18;;;;;;;1.70;0.80;;;21.60;32.50;;;;;;5049916;28;20393;-66
2022/01/28 07:45:43;;;;;;;1.50;0.70;;;21.50;32.30;;;;;;5032564;28;20389;-80
2022/01/28 07:48:09;;;;;;;2.10;0.80;;;21.50;32.30;;;;;;5035190;28;20443;-68
2022/01/28 07:50:35;;;;;;;2.30;0.80;;;21.50;32.30;;;;;;5053971;28;20436;-71
2022/01/28 07:53:01;;;;;;;1.15;0.60;;;21.50;32.40;;;;;;5053648;28;20496;-66
2022/01/28 07:55:26;;;;;;;1.60;0.90;;;21.50;32.40;;;;;;5053781;28;20820;-67
2022/01/28 07:57:52;;;;;;;1.13;0.60;;;21.50;32.30;;;;;;5036075;28;20382;-66
2022/01/28 08:00:18;;;;;;;1.80;1.10;;;21.50;32.40;;;;;;5053764;28;20400;-73
2022/01/28 08:02:44;;;;;;;1.77;0.70;;;21.50;32.30;;;;;;5053786;28;20997;-67
2022/01/28 08:05:11;;;;;;;1.13;0.67;;;21.50;32.30;;;;;;5034825;28;20405;-68
2022/01/28 08:07:36;;;;;;;1.20;0.70;;;21.50;32.30;;;;;;5053436;28;20382;-68
2022/01/28 08:10:03;;;;;;;2.10;0.90;;;21.50;32.20;;;;;;5053522;28;20396;-67
2022/01/28 08:12:28;;;;;;;1.35;0.63;;;21.50;32.20;;;;;;5053570;28;20389;-66
2022/01/28 08:14:54;;;;;;;1.87;0.90;;;21.50;32.30;;;;;;5053555;28;20417;-66
2022/01/28 08:17:20;;;;;;;1.10;0.70;;;21.50;32.20;;;;;;5053147;28;20381;-73
2022/01/28 08:19:45;;;;;;;1.43;0.70;;;21.50;32.20;;;;;;5035461;28;20394;-72
2022/01/28 08:22:11;;;;;;;1.40;0.60;;;21.50;32.10;;;;;;5053446;28;20381;-70
2022/01/28 08:24:37;;;;;;;1.30;0.70;;;21.50;31.90;;;;;;5052136;28;20397;-66
2022/01/28 08:27:03;;;;;;;1.13;0.63;;;21.50;31.90;;;;;;5034143;28;20451;-65
2022/01/28 08:29:29;;;;;;;2.17;0.77;;;21.50;32.00;;;;;;5053361;28;20394;-67
2022/01/28 08:31:55;;;;;;;1.30;0.70;;;21.50;32.10;;;;;;5052887;28;20874;-66
2022/01/28 08:34:20;;;;;;;1.10;0.63;;;21.40;32.00;;;;;;5053144;28;20551;-66
2022/01/28 08:36:46;;;;;;;1.80;0.70;;;21.40;32.00;;;;;;5053424;28;20400;-72
2022/01/28 08:39:14;;;;;;;1.20;0.60;;;21.40;31.90;;;;;;5052284;28;20485;-67
2022/01/28 08:41:42;;;;;;;1.02;0.70;;;21.50;32.00;;;;;;5052022;28;20869;-77
2022/01/28 08:44:09;;;;;;;1.30;0.50;;;21.50;32.00;;;;;;5051824;28;20400;-76
2022/01/28 08:46:34;;;;;;;0.90;0.60;;;21.50;31.90;;;;;;5052380;28;20393;-68
2022/01/28 08:49:03;;;;;;;1.50;0.60;;;21.50;31.80;;;;;;5051722;28;20409;-67
2022/01/28 08:51:28;;;;;;;1.00;0.60;;;21.50;31.90;;;;;;5052935;28;20385;-74
2022/01/28 08:53:54;;;;;;;1.80;0.60;;;21.50;31.90;;;;;;5052765;28;20409;-69
2022/01/28 08:56:20;;;;;;;1.17;0.70;;;21.40;31.90;;;;;;5052430;28;20443;-68
2022/01/28 08:58:46;;;;;;;0.85;0.50;;;21.50;31.90;;;;;;5052074;28;20854;-67
2022/01/28 09:01:11;;;;;;;1.10;0.70;;;21.50;32.00;;;;;;5052296;28;20416;-73
2022/01/28 09:03:37;;;;;;;0.80;0.50;;;21.50;31.90;;;;;;5052331;28;20389;-66
2022/01/28 09:06:03;;;;;;;1.27;0.70;;;21.40;31.80;;;;;;5052406;28;20389;-66
2022/01/28 09:08:28;;;;;;;0.82;0.50;;;21.40;31.80;;;;;;5052090;28;20385;-70
2022/01/28 09:10:59;;;;;;;0.80;0.50;;;21.40;31.80;;;;;;5051969;28;20394;-67
2022/01/28 09:13:37;;;;;;;1.05;0.60;;;21.40;31.90;;;;;;5052043;28;20424;-66
2022/01/28 09:16:03;;;;;;;1.17;0.47;;;21.40;31.80;;;;;;5052276;28;20401;-68
2022/01/28 09:18:29;;;;;;;1.08;0.60;;;21.40;31.80;;;;;;5052089;28;20390;-66
2022/01/28 09:20:56;;;;;;;1.27;0.60;;;21.40;31.80;;;;;;5052126;28;20404;-74
2022/01/28 09:23:22;;;;;;;1.07;0.63;;;21.40;31.80;;;;;;5033968;28;20422;-67
2022/01/28 09:25:48;;;;;;;2.13;0.60;;;21.40;31.80;;;;;;5052289;28;20389;-68
2022/01/28 09:28:14;;;;;;;1.30;0.70;;;21.40;31.70;;;;;;5052122;28;20753;-67
2022/01/28 09:30:40;;;;;;;0.80;0.50;;;21.40;31.70;;;;;;5052117;28;20398;-67
2022/01/28 09:33:06;;;;;;;1.02;0.60;;;21.40;31.70;;;;;;5051555;28;20382;-70
2022/01/28 09:35:33;;;;;;;1.05;0.60;;;21.40;31.70;;;;;;5051899;28;20508;-67
2022/01/28 09:37:59;;;;;;;1.05;0.60;;;21.40;31.70;;;;;;5051782;28;20909;-74
2022/01/28 09:40:24;;;;;;;0.93;0.60;;;21.40;31.70;;;;;;5051938;28;20492;-67
2022/01/28 09:42:52;;;;;;;0.97;0.60;;;21.40;31.70;;;;;;5051312;28;20431;-75
2022/01/28 09:45:22;;;;;;;0.93;0.50;;;21.40;31.70;;;;;;5033406;28;20401;-67
2022/01/28 09:47:51;;;;;;;1.20;0.50;;;21.40;31.70;;;;;;5051651;28;20385;-66
2022/01/28 09:50:17;;;;;;;1.20;0.68;;;21.40;31.70;;;;;;5051193;28;20897;-66
2022/01/28 09:52:43;;;;;;;1.02;0.68;;;21.40;31.70;;;;;;5033786;28;20394;-75
2022/01/28 09:55:09;;;;;;;1.08;0.60;;;21.30;31.70;;;;;;5050995;28;20421;-67
2022/01/28 09:57:34;;;;;;;1.23;0.68;;;21.40;31.70;;;;;;5051612;28;20464;-71
2022/01/28 10:00:05;;;;;;;1.60;0.80;;;21.30;31.70;;;;;;5050557;28;20413;-66
2022/01/28 10:02:51;;;;;;;1.25;0.65;;;21.40;31.70;;;;;;5033411;28;20394;-67
2022/01/28 10:05:27;;;;;;;1.40;0.60;;;21.30;31.80;;;;;;5033000;28;20451;-66
2022/01/28 10:08:24;;;;;;;2.05;0.63;;;21.30;32.10;;;;;;5030751;28;20393;-66
2022/01/28 10:11:07;;;;;;;1.00;0.70;;;21.30;32.00;;;;;;5032186;28;20398;-67
2022/01/28 10:13:44;;;;;;;2.20;0.60;;;21.30;32.00;;;;;;5050858;28;20894;-70
2022/01/28 10:16:14;;;;;;;1.20;0.70;;;21.30;31.90;;;;;;5033256;28;20441;-67
2022/01/28 10:18:41;;;;;;;1.05;0.70;;;21.30;31.90;;;;;;5051139;28;20466;-67
2022/01/28 10:21:16;;;;;;;1.35;0.73;;;21.30;31.90;;;;;;5050289;28;20404;-67
2022/01/28 10:23:42;;;;;;;1.60;0.75;;;21.40;32.50;;;;;;5050291;28;20893;-71
2022/01/28 10:26:08;;;;;;;1.52;0.75;;;21.40;31.90;;;;;;5051059;28;20385;-67
2022/01/28 10:28:35;;;;;;;4.40;1.85;;;21.40;31.90;;;;;;5049774;28;20745;-71
2022/01/28 10:31:04;;;;;;;3.22;1.30;;;21.50;33.20;;;;;;5049792;28;20398;-66
2022/01/28 10:33:30;;;;;;;3.30;1.40;;;21.60;33.80;;;;;;5049321;28;20381;-66
2022/01/28 10:36:01;;;;;;;3.00;1.20;;;21.60;33.70;;;;;;5049549;28;20397;-70
2022/01/28 10:38:36;;;;;;;2.85;1.20;;;21.70;33.50;;;;;;5031817;28;20758;-66
2022/01/28 10:41:13;;;;;;;2.30;1.08;;;21.70;34.70;;;;;;5047403;28;20408;-69
2022/01/28 10:43:50;;;;;;;2.45;0.98;;;21.80;33.80;;;;;;5047237;28;20424;-66
2022/01/28 10:46:29;;;;;;;3.30;1.08;;;21.70;35.40;;;;;;5049896;28;20409;-71
2022/01/28 10:49:01;;;;;;;2.33;1.00;;;21.80;34.20;;;;;;5050576;28;20416;-66
2022/01/28 10:51:49;;;;;;;2.22;1.00;;;21.80;35.10;;;;;;5050441;28;20396;-67
2022/01/28 10:54:22;;;;;;;2.70;0.85;;;21.80;33.80;;;;;;5050634;28;20422;-66
2022/01/28 10:56:57;;;;;;;2.47;1.00;;;21.90;33.70;;;;;;5032836;28;20394;-67
2022/01/28 10:59:42;;;;;;;1.50;0.77;;;21.90;33.70;;;;;;5050130;28;20393;-65
2022/01/28 11:02:08;;;;;;;2.22;0.80;;;21.80;33.60;;;;;;5050634;28;20424;-66
2022/01/28 11:04:34;;;;;;;1.73;0.82;;;21.80;33.30;;;;;;5050517;28;20483;-66
2022/01/28 11:07:02;;;;;;;2.30;0.73;;;21.80;33.40;;;;;;5032356;28;20385;-74
2022/01/28 11:09:30;;;;;;;1.88;0.75;;;21.80;33.20;;;;;;5049776;28;20394;-65
2022/01/28 11:11:55;;;;;;;1.85;0.88;;;21.80;33.00;;;;;;5049290;28;20393;-64
2022/01/28 11:14:22;;;;;;;1.10;0.70;;;21.80;33.10;;;;;;5050014;28;20412;-75
2022/01/28 11:16:48;;;;;;;1.40;0.80;;;21.80;32.90;;;;;;5050538;28;20385;-72
2022/01/28 11:19:17;;;;;;;2.05;0.82;;;21.80;32.80;;;;;;5050065;28;20404;-66
2022/01/28 11:22:08;;;;;;;2.17;0.80;;;21.80;32.70;;;;;;5050883;28;20397;-72
2022/01/28 11:24:52;;;;;;;1.88;0.80;;;21.80;32.60;;;;;;5053878;28;20387;-66
2022/01/28 11:27:36;;;;;;;1.80;0.70;;;21.70;32.30;;;;;;5053681;28;20411;-67
2022/01/28 11:30:25;;;;;;;1.60;0.80;;;21.70;32.60;;;;;;5054144;28;20396;-66
2022/01/28 11:33:02;;;;;;;2.45;0.70;;;21.60;33.00;;;;;;5038802;28;20414;-70
2022/01/28 11:35:41;;;;;;;3.70;1.02;;;21.60;32.70;;;;;;5052987;28;20424;-62
2022/01/28 11:38:27;;;;;;;2.03;0.90;;;21.60;32.80;;;;;;5053771;28;20429;-66
2022/01/28 11:41:15;;;;;;;2.30;0.70;;;21.60;33.20;;;;;;5036765;28;20451;-65
2022/01/28 11:43:55;;;;;;;2.28;0.90;;;21.70;33.50;;;;;;5053780;28;20394;-66
2022/01/28 11:46:27;;;;;;;2.97;0.73;;;21.60;34.20;;;;;;5053938;28;20390;-66
2022/01/28 11:48:54;;;;;;;3.07;0.90;;;21.70;34.20;;;;;;5052912;28;20535;-71
2022/01/28 11:51:32;;;;;;;4.63;1.10;;;21.70;34.10;;;;;;5052579;28;20738;-65
2022/01/28 11:54:00;;;;;;;4.22;0.85;;;21.70;33.40;;;;;;5053120;28;20486;-65
2022/01/28 11:56:27;;;;;;;3.50;0.93;;;21.70;33.70;;;;;;5053295;28;20394;-63
2022/01/28 11:59:08;;;;;;;2.65;0.90;;;21.70;35.10;;;;;;5035916;28;20398;-73
2022/01/28 12:01:40;;;;;;;4.20;0.87;;;21.70;35.30;;;;;;5053912;28;20421;-65
2022/01/28 12:04:27;;;;;;;4.03;0.80;;;21.80;35.10;;;;;;5053168;28;20378;-64
2022/01/28 12:07:21;;;;;;;4.37;0.93;;;21.80;35.40;;;;;;5053554;28;20456;-78
2022/01/28 12:09:52;;;;;;;2.00;0.82;;;21.80;35.20;;;;;;5046227;28;20443;-66
2022/01/28 12:12:45;;;;;;;2.85;0.70;;;21.80;35.00;;;;;;5035758;28;20467;-79
2022/01/28 12:15:17;;;;;;;4.15;1.02;;;21.90;34.90;;;;;;5040063;28;20421;-68
2022/01/28 12:17:49;;;;;;;2.93;0.80;;;21.90;35.20;;;;;;5053348;28;20386;-67
2022/01/28 12:20:24;;;;;;;3.65;0.90;;;21.90;35.30;;;;;;5035543;28;20881;-80
2022/01/28 12:23:25;;;;;;;3.65;0.77;;;21.90;35.10;;;;;;5035432;28;20746;-68
2022/01/28 12:25:55;;;;;;;1.83;0.60;;;21.90;35.30;;;;;;5053301;28;20386;-68
2022/01/28 12:28:32;;;;;;;3.65;0.60;;;21.90;35.30;;;;;;5053194;28;21141;-68
2022/01/28 12:31:08;;;;;;;4.65;0.85;;;21.90;35.30;;;;;;5035220;28;20897;-67
2022/01/28 12:33:46;;;;;;;2.93;0.97;;;21.90;35.00;;;;;;5034273;28;20929;-67
2022/01/28 12:36:17;;;;;;;3.80;0.60;;;21.90;34.70;;;;;;5053133;28;20390;-68
2022/01/28 12:38:58;;;;;;;2.47;0.75;;;21.80;35.00;;;;;;5052887;28;20385;-67
2022/01/28 12:41:25;;;;;;;4.30;0.80;;;21.80;35.20;;;;;;5052430;28;20501;-72
2022/01/28 12:43:51;;;;;;;3.70;0.82;;;21.80;34.90;;;;;;5052850;28;20750;-67
2022/01/28 12:46:17;;;;;;;2.45;0.90;;;21.80;34.80;;;;;;5052759;28;20415;-67
2022/01/28 12:48:50;;;;;;;2.40;0.63;;;21.80;34.80;;;;;;5052698;28;20393;-67
2022/01/28 12:51:16;;;;;;;2.00;0.70;;;21.80;34.90;;;;;;5052076;28;20404;-67
2022/01/28 12:53:49;;;;;;;1.88;0.65;;;21.80;34.60;;;;;;5034182;28;20393;-67
2022/01/28 12:56:17;;;;;;;3.53;0.80;;;21.80;34.50;;;;;;5052516;28;20943;-79
2022/01/28 12:58:51;;;;;;;1.35;0.70;;;21.80;34.80;;;;;;5052505;28;20393;-69
2022/01/28 13:01:19;;;;;;;1.00;0.45;;;21.80;34.70;;;;;;5050786;28;20394;-65
2022/01/28 13:03:54;;;;;;;3.10;0.70;;;21.80;34.70;;;;;;5034146;28;20429;-75
2022/01/28 13:06:39;;;;;;;3.65;0.70;;;21.70;34.50;;;;;;5034475;28;20924;-65
2022/01/28 13:09:14;;;;;;;1.80;0.70;;;21.80;34.50;;;;;;5051874;28;20396;-69
2022/01/28 13:11:47;;;;;;;1.73;0.63;;;21.80;34.40;;;;;;5051931;28;20443;-70
2022/01/28 13:14:15;;;;;;;1.83;0.52;;;21.80;34.40;;;;;;5028165;28;20473;-64
2022/01/28 13:16:43;;;;;;;2.33;0.70;;;21.80;34.40;;;;;;5022482;28;20418;-65
2022/01/28 13:19:11;;;;;;;1.42;0.60;;;21.70;34.30;;;;;;5014433;28;20833;-68
2022/01/28 13:21:38;;;;;;;2.45;0.70;;;21.70;34.20;;;;;;5014000;28;20399;-63
2022/01/28 13:24:09;;;;;;;2.08;0.70;;;21.80;34.20;;;;;;5031937;28;20395;-64
2022/01/28 13:26:52;;;;;;;2.03;0.60;;;21.80;34.30;;;;;;5038529;28;20404;-62
2022/01/28 13:29:18;;;;;;;3.90;0.90;;;21.90;34.30;;;;;;5049812;28;20455;-63
2022/01/28 13:31:56;;;;;;;2.33;0.70;;;21.90;34.20;;;;;;5048853;28;20389;-62
2022/01/28 13:34:22;;;;;;;2.22;0.60;;;21.90;34.40;;;;;;5048159;28;21247;-70
2022/01/28 13:36:49;;;;;;;3.25;0.70;;;21.90;34.40;;;;;;5031230;28;20386;-62
2022/01/28 13:39:23;;;;;;;3.13;0.60;;;21.80;33.60;;;;;;5048937;28;20433;-66
2022/01/28 13:42:09;;;;;;;1.38;0.60;;;21.80;34.30;;;;;;5029658;28;20408;-66
2022/01/28 13:44:38;;;;;;;3.37;0.97;;;21.90;34.30;;;;;;5031198;28;20463;-63
2022/01/28 13:47:05;;;;;;;1.07;0.50;;;21.90;34.40;;;;;;5031323;28;20397;-63
2022/01/28 13:49:36;;;;;;;2.57;0.70;;;22.00;34.70;;;;;;5030426;28;20475;-63
2022/01/28 13:52:09;;;;;;;2.38;0.55;;;22.00;35.20;;;;;;5023433;28;20403;-73
2022/01/28 13:54:35;;;;;;;1.90;0.73;;;22.00;35.40;;;;;;5047593;28;20425;-63
2022/01/28 13:57:03;;;;;;;2.60;0.73;;;22.00;35.70;;;;;;5031526;28;20408;-65
2022/01/28 13:59:32;;;;;;;3.90;0.77;;;22.00;34.80;;;;;;5049285;28;20489;-64
2022/01/28 14:01:59;;;;;;;2.05;0.47;;;22.00;34.80;;;;;;5049626;28;20421;-63
2022/01/28 14:04:35;;;;;;;2.00;0.60;;;22.00;34.20;;;;;;5049848;28;20389;-64
2022/01/28 14:07:24;;;;;;;4.28;0.90;;;22.00;34.00;;;;;;5049893;28;20396;-70
2022/01/28 14:09:52;;;;;;;2.47;0.80;;;21.90;33.80;;;;;;5032207;28;20397;-72
2022/01/28 14:12:28;;;;;;;1.92;0.60;;;21.90;34.00;;;;;;5032480;28;20882;-63
2022/01/28 14:14:59;;;;;;;3.08;0.80;;;21.80;33.90;;;;;;5050931;28;20428;-67
2022/01/28 14:17:24;;;;;;;1.90;0.50;;;21.80;33.90;;;;;;5050641;28;20412;-66
2022/01/28 14:19:51;;;;;;;2.10;0.50;;;21.80;33.70;;;;;;5033255;28;20750;-69
2022/01/28 14:22:17;;;;;;;2.35;0.60;;;21.90;33.70;;;;;;5032754;28;20823;-76
2022/01/28 14:24:44;;;;;;;2.05;0.60;;;21.90;33.50;;;;;;5033150;28;20437;-69
2022/01/28 14:27:44;;;;;;;1.37;0.60;;;21.80;33.30;;;;;;5050001;28;20465;-69